Time;durP1;ratioP1;P1;durP2;ratioP2;P2;SDS_P1;SDS_P2;PMS_P1;PMS_P2;Temp;Humidity;BMP_temperature;BMP_pressure;BME280_temperature;BME280_humidity;BME280_pressure;Samples;Min_cycle;Max_cycle;Signal;HPM_P1;HPM_P2
2021/10/18 00:02:21;;;;;;;1999.90;999.90;;;;;;;10.75;100.00;96230.09;5113363;28;20195;-70
2021/10/18 00:04:48;;;;;;;1999.90;999.90;;;;;;;10.70;100.00;96227.56;5113259;28;20716;-68
2021/10/18 00:07:17;;;;;;;1999.90;999.90;;;;;;;10.73;100.00;96224.38;5113228;28;20678;-69
2021/10/18 00:09:44;;;;;;;1999.90;999.90;;;;;;;10.76;100.00;96217.84;5113188;28;20203;-68
2021/10/18 00:12:11;;;;;;;1999.90;999.90;;;;;;;10.81;100.00;96217.06;5113233;28;20202;-68
2021/10/18 00:14:38;;;;;;;1999.90;999.90;;;;;;;10.83;100.00;96220.91;5113402;28;20203;-68
2021/10/18 00:17:06;;;;;;;1999.90;999.90;;;;;;;10.82;100.00;96221.94;5113251;28;20226;-68
2021/10/18 00:19:33;;;;;;;1999.90;999.90;;;;;;;10.75;100.00;96219.69;5113323;28;20575;-68
2021/10/18 00:22:00;;;;;;;1999.90;999.90;;;;;;;10.69;100.00;96220.78;5113365;28;20207;-69
2021/10/18 00:24:29;;;;;;;1999.90;999.90;;;;;;;10.67;100.00;96222.88;5113197;28;20207;-67
2021/10/18 00:26:56;;;;;;;1999.90;999.90;;;;;;;10.69;100.00;96226.00;5112815;28;20583;-68
2021/10/18 00:29:23;;;;;;;1999.90;999.90;;;;;;;10.63;100.00;96221.13;5112855;28;20191;-68
2021/10/18 00:31:50;;;;;;;1999.90;999.90;;;;;;;10.64;100.00;96222.66;5112716;28;20225;-68
2021/10/18 00:34:17;;;;;;;1999.90;999.90;;;;;;;10.66;100.00;96216.13;5113076;28;20210;-68
2021/10/18 00:36:45;;;;;;;1999.90;999.90;;;;;;;10.70;100.00;96219.75;5112559;28;20219;-67
2021/10/18 00:39:12;;;;;;;1999.90;999.90;;;;;;;10.67;100.00;96222.88;5112484;28;20616;-68
2021/10/18 00:41:41;;;;;;;1999.90;999.90;;;;;;;10.67;100.00;96216.91;5112916;28;20199;-68
2021/10/18 00:44:08;;;;;;;1999.90;999.90;;;;;;;10.71;100.00;96220.50;5112745;28;20195;-68
2021/10/18 00:46:35;;;;;;;1999.90;999.90;;;;;;;10.69;100.00;96207.78;5112515;28;20191;-68
2021/10/18 00:49:02;;;;;;;1999.90;999.90;;;;;;;10.74;100.00;96217.38;5112244;28;20272;-69
2021/10/18 00:51:30;;;;;;;1999.90;999.90;;;;;;;10.75;100.00;96218.94;5112463;28;20742;-67
2021/10/18 00:54:00;;;;;;;1999.90;999.90;;;;;;;10.73;100.00;96216.59;5112393;28;20200;-69
2021/10/18 00:56:28;;;;;;;1999.90;999.90;;;;;;;10.77;100.00;96216.81;5112382;28;20223;-67
2021/10/18 00:59:00;;;;;;;1999.90;999.90;;;;;;;10.80;100.00;96216.28;5112955;28;20213;-67
2021/10/18 01:01:27;;;;;;;1999.90;999.90;;;;;;;10.75;100.00;96209.31;5112468;28;20187;-69
2021/10/18 01:03:57;;;;;;;1999.90;999.90;;;;;;;10.81;100.00;96217.06;5112497;28;20202;-67
2021/10/18 01:06:24;;;;;;;1999.90;999.90;;;;;;;10.78;100.00;96220.97;5112460;27;20190;-67
2021/10/18 01:08:51;;;;;;;1999.90;999.90;;;;;;;10.74;100.00;96215.53;5111815;28;20249;-68
2021/10/18 01:11:19;;;;;;;1999.90;999.90;;;;;;;10.78;100.00;96219.13;5111358;28;20683;-68
2021/10/18 01:13:46;;;;;;;1999.90;999.90;;;;;;;10.76;100.00;96216.03;5111917;28;20199;-68
2021/10/18 01:16:15;;;;;;;1999.90;999.90;;;;;;;10.81;100.00;96212.59;5111927;28;20199;-68
2021/10/18 01:18:42;;;;;;;1999.90;999.90;;;;;;;10.76;100.00;96208.22;5112127;28;20194;-68
2021/10/18 01:21:11;;;;;;;1999.90;999.90;;;;;;;10.69;100.00;96209.63;5111898;28;20593;-69
2021/10/18 01:23:38;;;;;;;1999.90;999.90;;;;;;;10.69;100.00;96207.03;5111771;28;20203;-68
2021/10/18 01:26:06;;;;;;;1999.90;999.90;;;;;;;10.69;100.00;96207.78;5111606;28;20203;-68
2021/10/18 01:28:33;;;;;;;1999.90;999.90;;;;;;;10.61;100.00;96212.84;5111631;28;20195;-68
2021/10/18 01:31:00;;;;;;;1999.90;999.90;;;;;;;10.60;100.00;96206.84;5111927;28;20198;-68
2021/10/18 01:33:27;;;;;;;1999.90;999.90;;;;;;;10.61;100.00;96203.19;5111516;28;20195;-68
2021/10/18 01:35:55;;;;;;;1999.90;999.90;;;;;;;10.59;100.00;96204.53;5111738;28;20238;-67
2021/10/18 01:38:23;;;;;;;1999.90;999.90;;;;;;;10.64;100.00;96207.06;5111355;28;20230;-68
2021/10/18 01:40:50;;;;;;;1999.90;999.90;;;;;;;10.65;100.00;96195.63;5111644;28;20584;-68
2021/10/18 01:43:18;;;;;;;1999.90;999.90;;;;;;;10.67;100.00;96202.09;5111344;28;20203;-68
2021/10/18 01:45:45;;;;;;;1999.90;999.90;;;;;;;10.65;100.00;96200.84;5111705;28;20199;-68
2021/10/18 01:48:12;;;;;;;1999.90;999.90;;;;;;;10.70;100.00;96204.16;5111445;28;20195;-67
2021/10/18 01:50:39;;;;;;;1999.90;999.90;;;;;;;10.73;100.00;96200.22;5111113;28;20667;-68
2021/10/18 01:53:06;;;;;;;1999.90;999.90;;;;;;;10.73;100.00;96201.00;5111428;28;20869;-67
2021/10/18 01:55:35;;;;;;;1999.90;999.90;;;;;;;10.75;100.00;96203.31;5111095;28;20198;-68
2021/10/18 01:58:03;;;;;;;1999.90;999.90;;;;;;;10.77;100.00;96193.41;5110843;28;20234;-68
2021/10/18 02:00:30;;;;;;;1999.90;999.90;;;;;;;10.75;100.00;96198.13;5111360;28;20206;-67
2021/10/18 02:02:57;;;;;;;1999.90;999.90;;;;;;;10.74;100.00;96202.56;5111327;28;20195;-67
2021/10/18 02:05:24;;;;;;;1999.90;999.90;;;;;;;10.74;100.00;96199.16;5111286;27;20195;-67
2021/10/18 02:07:51;;;;;;;1999.90;999.90;;;;;;;10.76;100.00;96197.81;5111103;28;20720;-67
2021/10/18 02:10:18;;;;;;;1999.90;999.90;;;;;;;10.78;100.00;96197.56;5110893;28;20210;-68
2021/10/18 02:12:47;;;;;;;1999.90;999.90;;;;;;;10.78;100.00;96198.34;5111098;28;20280;-67
2021/10/18 02:15:14;;;;;;;1999.90;999.90;;;;;;;10.75;100.00;96198.13;5110708;28;20195;-68
2021/10/18 02:17:42;;;;;;;1999.90;999.90;;;;;;;10.75;100.00;96200.72;5110688;28;20870;-68
2021/10/18 02:20:12;;;;;;;1999.90;999.90;;;;;;;10.74;100.00;96199.94;5110968;28;20210;-68
2021/10/18 02:22:39;;;;;;;1999.90;999.90;;;;;;;10.78;100.00;96203.53;5110507;28;20201;-68
2021/10/18 02:25:09;;;;;;;1999.90;999.90;;;;;;;10.78;100.00;96198.34;5110673;28;20666;-68
2021/10/18 02:27:36;;;;;;;1999.90;999.90;;;;;;;10.82;100.00;96202.97;5110558;28;20190;-68
2021/10/18 02:30:06;;;;;;;1999.90;999.90;;;;;;;10.82;100.00;96206.34;5110678;28;20199;-68
2021/10/18 02:32:34;;;;;;;1999.90;999.90;;;;;;;10.82;100.00;96202.97;5111075;28;20191;-68
2021/10/18 02:35:01;;;;;;;1999.90;999.90;;;;;;;10.81;100.00;96212.59;5110423;28;20202;-68
2021/10/18 02:37:28;;;;;;;1999.90;999.90;;;;;;;10.81;100.00;96206.66;5110716;28;20303;-68
2021/10/18 02:39:55;;;;;;;1999.90;999.90;;;;;;;10.84;100.00;96206.88;5110623;28;20256;-68
2021/10/18 02:42:23;;;;;;;1999.90;999.90;;;;;;;10.84;100.00;96209.47;5110442;28;20199;-69
2021/10/18 02:44:50;;;;;;;1999.90;999.90;;;;;;;10.75;100.00;96211.91;5110584;28;20573;-68
2021/10/18 02:47:18;;;;;;;1999.90;999.90;;;;;;;10.77;100.00;96214.19;5110278;28;20190;-68
2021/10/18 02:49:45;;;;;;;1999.90;999.90;;;;;;;10.87;100.00;96205.53;5110164;28;20210;-68
2021/10/18 02:52:13;;;;;;;1999.90;999.90;;;;;;;10.85;100.00;96207.63;5110344;28;20195;-68
2021/10/18 02:54:40;;;;;;;1999.90;999.90;;;;;;;10.82;100.00;96211.56;5110344;28;20205;-68
2021/10/18 02:57:07;;;;;;;1999.90;999.90;;;;;;;10.81;100.00;96214.44;5110298;28;20232;-68
2021/10/18 02:59:34;;;;;;;1999.90;999.90;;;;;;;10.76;100.00;96215.25;5110179;28;20198;-68
2021/10/18 03:02:01;;;;;;;1999.90;999.90;;;;;;;10.77;100.00;96214.19;5110265;28;20206;-68
2021/10/18 03:04:30;;;;;;;1999.90;999.90;;;;;;;10.78;100.00;96218.34;5110636;28;20199;-69
2021/10/18 03:06:57;;;;;;;1999.90;999.90;;;;;;;10.82;100.00;96214.16;5110600;28;20195;-68
2021/10/18 03:09:24;;;;;;;1999.90;999.90;;;;;;;10.75;100.00;96217.09;5110356;28;20198;-68
2021/10/18 03:11:51;;;;;;;1999.90;999.90;;;;;;;10.70;100.00;96219.75;5110437;28;20202;-68
2021/10/18 03:14:19;;;;;;;1999.90;999.90;;;;;;;10.74;100.00;96217.38;5110052;28;20196;-69
2021/10/18 03:16:46;;;;;;;1999.90;999.90;;;;;;;10.79;100.00;96214.72;5110058;28;20195;-68
2021/10/18 03:19:13;;;;;;;1999.90;999.90;;;;;;;10.77;100.00;96222.00;5110011;28;20229;-68
2021/10/18 03:21:42;;;;;;;1999.90;999.90;;;;;;;10.74;100.00;96217.38;5110102;28;20194;-68
2021/10/18 03:24:09;;;;;;;1999.90;999.90;;;;;;;10.78;100.00;96213.94;5109946;28;20898;-68
2021/10/18 03:26:37;;;;;;;1999.90;999.90;;;;;;;10.71;100.00;96221.28;5110099;28;20191;-68
2021/10/18 03:29:04;;;;;;;1999.90;999.90;;;;;;;10.72;100.00;96211.66;5110007;28;20206;-68
2021/10/18 03:31:32;;;;;;;1999.90;999.90;;;;;;;10.71;100.00;96221.28;5110297;28;20633;-68
2021/10/18 03:33:59;;;;;;;1999.90;999.90;;;;;;;10.69;100.00;96222.63;5112305;28;20685;-68
2021/10/18 03:36:26;;;;;;;1999.90;999.90;;;;;;;10.70;100.00;96227.56;5114147;28;20222;-69
2021/10/18 03:38:54;;;;;;;1999.90;999.90;;;;;;;10.67;100.00;96229.91;5113683;28;20230;-68
2021/10/18 03:41:22;;;;;;;1999.90;999.90;;;;;;;10.73;100.00;96231.41;5113580;28;20195;-68
2021/10/18 03:43:49;;;;;;;1999.90;999.90;;;;;;;10.70;100.00;96231.97;5113665;28;20200;-68
2021/10/18 03:46:16;;;;;;;1999.90;999.90;;;;;;;10.72;100.00;96229.84;5113860;28;20218;-68
2021/10/18 03:48:43;;;;;;;1999.90;999.90;;;;;;;10.70;100.00;96232.75;5113837;28;20193;-68
2021/10/18 03:51:10;;;;;;;1999.90;999.90;;;;;;;10.77;100.00;96222.00;5113733;28;20201;-68
2021/10/18 03:53:37;;;;;;;1999.90;999.90;;;;;;;10.74;100.00;96232.97;5113669;28;20202;-68
2021/10/18 03:56:06;;;;;;;1999.90;999.90;;;;;;;10.71;100.00;96229.06;5113318;27;20195;-68
2021/10/18 03:58:33;;;;;;;1999.90;999.90;;;;;;;10.69;100.00;96236.41;5113230;28;20678;-68
2021/10/18 04:01:02;;;;;;;1999.90;999.90;;;;;;;10.69;100.00;96230.41;5113540;28;20195;-68
2021/10/18 04:03:29;;;;;;;1999.90;999.90;;;;;;;10.71;100.00;96234.28;5113312;28;20655;-68
2021/10/18 04:05:56;;;;;;;1999.90;999.90;;;;;;;10.70;100.00;96237.16;5113185;28;20201;-68
2021/10/18 04:08:26;;;;;;;1999.90;999.90;;;;;;;10.70;100.00;96242.38;5113198;28;20667;-68
2021/10/18 04:10:53;;;;;;;1999.90;999.90;;;;;;;10.74;100.00;96238.16;5113361;28;20183;-68
2021/10/18 04:13:22;;;;;;;1999.90;999.90;;;;;;;10.68;100.00;96237.44;5113251;28;20209;-68
2021/10/18 04:15:49;;;;;;;1999.90;999.90;;;;;;;10.61;100.00;96238.81;5113356;28;20199;-68
2021/10/18 04:18:16;;;;;;;1999.90;999.90;;;;;;;10.61;100.00;96239.56;5112900;28;20223;-68
2021/10/18 04:20:44;;;;;;;1999.90;999.90;;;;;;;10.55;100.00;96234.72;5112939;28;20203;-68
2021/10/18 04:23:11;;;;;;;1999.90;999.90;;;;;;;10.58;100.00;96234.16;5112972;28;20678;-68
2021/10/18 04:25:38;;;;;;;1999.90;999.90;;;;;;;10.54;100.00;96238.34;5112922;28;20206;-69
2021/10/18 04:28:05;;;;;;;1999.90;999.90;;;;;;;10.58;100.00;96239.34;5113235;28;20205;-69
2021/10/18 04:30:34;;;;;;;1999.90;999.90;;;;;;;10.55;100.00;96235.50;5113297;28;20196;-69
2021/10/18 04:33:02;;;;;;;1999.90;999.90;;;;;;;10.59;100.00;96248.72;5112634;28;20191;-67
2021/10/18 04:35:29;;;;;;;1999.90;999.90;;;;;;;10.60;100.00;96245.06;5112730;28;20201;-68
2021/10/18 04:37:56;;;;;;;1999.90;999.90;;;;;;;10.65;100.00;96243.19;5112702;28;20226;-68
2021/10/18 04:40:23;;;;;;;1999.90;999.90;;;;;;;10.64;100.00;96233.06;5112643;28;20198;-69
2021/10/18 04:42:50;;;;;;;1999.90;999.90;;;;;;;10.55;100.00;96234.72;5112595;28;20203;-68
2021/10/18 04:45:17;;;;;;;1999.90;999.90;;;;;;;10.58;100.00;96240.13;5112349;28;20186;-68
2021/10/18 04:47:48;;;;;;;1999.90;999.90;;;;;;;10.62;100.00;96240.34;5112671;28;20218;-67
2021/10/18 04:50:16;;;;;;;1999.90;999.90;;;;;;;10.66;100.00;96241.38;5112439;28;20191;-68
2021/10/18 04:52:43;;;;;;;1999.90;999.90;;;;;;;10.66;100.00;96249.91;5111789;28;20223;-68
2021/10/18 04:55:10;;;;;;;1999.90;999.90;;;;;;;10.63;100.00;96247.09;5112625;28;20206;-69
2021/10/18 04:57:50;;;;;;;1999.90;999.90;;;;;;;10.57;100.00;96253.38;5112089;28;20239;-69
2021/10/18 05:00:17;;;;;;;1999.90;999.90;;;;;;;10.48;100.00;96253.22;5112213;28;20194;-67
2021/10/18 05:02:44;;;;;;;1999.90;999.90;;;;;;;10.49;100.00;96251.41;5112430;28;20255;-67
2021/10/18 05:05:12;;;;;;;1999.90;999.90;;;;;;;10.58;100.00;96254.94;5112130;28;20199;-68
2021/10/18 05:07:40;;;;;;;1999.90;999.90;;;;;;;10.61;100.00;96252.56;5112383;28;20199;-67
2021/10/18 05:10:11;;;;;;;1999.90;999.90;;;;;;;10.66;100.00;96262.16;5112318;28;20641;-68
2021/10/18 05:12:39;;;;;;;1999.90;999.90;;;;;;;10.68;100.00;96260.06;5112045;28;20727;-67
2021/10/18 05:15:08;;;;;;;1999.90;999.90;;;;;;;10.71;100.00;96260.28;5111739;28;20598;-67
2021/10/18 05:17:35;;;;;;;1999.90;999.90;;;;;;;10.70;100.00;96263.16;5111684;28;21063;-68
2021/10/18 05:20:02;;;;;;;1999.90;999.90;;;;;;;10.66;100.00;96262.91;5111902;28;20196;-67
2021/10/18 05:22:31;;;;;;;1999.90;999.90;;;;;;;10.60;100.00;96273.66;5111908;28;20191;-68
2021/10/18 05:24:58;;;;;;;1999.90;999.90;;;;;;;10.60;100.00;96269.22;5111793;28;20678;-67
2021/10/18 05:27:25;;;;;;;1999.90;999.90;;;;;;;10.70;100.00;96273.56;5111652;28;20205;-68
2021/10/18 05:29:52;;;;;;;1999.90;999.90;;;;;;;10.58;100.00;96276.50;5111425;28;20195;-67
2021/10/18 05:32:20;;;;;;;1999.90;999.90;;;;;;;10.55;100.00;96271.88;5111978;28;20206;-68
2021/10/18 05:34:47;;;;;;;1999.90;999.90;;;;;;;10.58;100.00;96275.75;5111560;28;20674;-68
2021/10/18 05:37:14;;;;;;;1999.90;999.90;;;;;;;10.63;100.00;96283.50;5111506;28;20205;-68
2021/10/18 05:39:42;;;;;;;1999.90;999.90;;;;;;;10.64;100.00;96285.06;5111262;28;20241;-69
2021/10/18 05:42:10;;;;;;;1999.90;999.90;;;;;;;10.69;100.00;96295.41;5111363;28;20198;-68
2021/10/18 05:44:37;;;;;;;1999.90;999.90;;;;;;;10.74;100.00;96295.34;5111282;28;20237;-70
2021/10/18 05:47:04;;;;;;;1999.90;999.90;;;;;;;10.79;100.00;96297.91;5111181;28;20191;-68
2021/10/18 05:49:31;;;;;;;1999.90;999.90;;;;;;;10.87;100.00;96297.31;5111197;28;20583;-70
2021/10/18 05:52:01;;;;;;;1999.90;999.90;;;;;;;10.86;100.00;96300.19;5111584;28;20208;-70
2021/10/18 05:54:28;;;;;;;1999.90;999.90;;;;;;;10.72;100.00;96308.63;5111349;28;20191;-69
2021/10/18 05:56:56;;;;;;;1999.90;999.90;;;;;;;10.69;100.00;96313.59;5110725;28;20254;-70
2021/10/18 05:59:24;;;;;;;1999.90;999.90;;;;;;;10.76;100.00;96307.03;5111036;28;20936;-69
2021/10/18 06:01:51;;;;;;;1999.90;999.90;;;;;;;10.76;100.00;96308.84;5111171;28;20206;-70
2021/10/18 06:04:18;;;;;;;1999.90;999.90;;;;;;;10.80;100.00;96312.47;5111272;28;20626;-70
2021/10/18 06:06:45;;;;;;;1999.90;999.90;;;;;;;10.85;100.00;96317.63;5111096;28;20195;-70
2021/10/18 06:09:14;;;;;;;1999.90;999.90;;;;;;;10.85;100.00;96307.22;5111239;28;20213;-70
2021/10/18 06:11:41;;;;;;;1999.90;999.90;;;;;;;10.98;100.00;96319.56;5111171;28;20203;-69
2021/10/18 06:14:10;;;;;;;1999.90;999.90;;;;;;;10.99;100.00;96321.13;5110904;28;20580;-70
2021/10/18 06:16:37;;;;;;;1999.90;999.90;;;;;;;11.09;100.00;96317.66;5110819;28;20605;-70
2021/10/18 06:19:04;;;;;;;1999.90;999.90;;;;;;;11.07;100.00;96314.53;5111098;28;20276;-67
2021/10/18 06:21:31;;;;;;;1999.90;999.90;;;;;;;11.16;100.00;96318.84;5110700;28;20678;-67
2021/10/18 06:23:58;;;;;;;1999.90;999.90;;;;;;;11.17;100.00;96323.00;5110855;28;20191;-67
2021/10/18 06:26:25;;;;;;;1999.90;999.90;;;;;;;11.19;100.00;96327.94;5110727;28;20209;-67
2021/10/18 06:28:53;;;;;;;1999.90;999.90;;;;;;;11.19;100.00;96327.94;5110566;28;20191;-67
2021/10/18 06:31:21;;;;;;;1999.90;999.90;;;;;;;11.37;100.00;96332.44;5110797;28;20199;-67
2021/10/18 06:33:48;;;;;;;1999.90;999.90;;;;;;;11.43;100.00;96338.34;5111034;28;20199;-67
2021/10/18 06:36:15;;;;;;;1999.90;999.90;;;;;;;11.62;100.00;96337.34;5110885;28;20205;-67
2021/10/18 06:38:43;;;;;;;1999.90;999.90;;;;;;;11.67;100.00;96339.13;5111146;28;20570;-67
2021/10/18 06:41:10;;;;;;;1999.90;999.90;;;;;;;11.69;100.00;96344.06;5110811;28;20206;-67
2021/10/18 06:43:37;;;;;;;1999.90;999.90;;;;;;;11.77;100.00;96352.03;5110920;28;20226;-67
2021/10/18 06:46:04;;;;;;;1999.90;999.90;;;;;;;11.82;100.00;96349.38;5110490;28;20208;-67
2021/10/18 06:48:36;;;;;;;1999.90;999.90;;;;;;;11.75;100.00;96350.78;5110398;28;20195;-67
2021/10/18 06:51:03;;;;;;;1999.90;999.90;;;;;;;11.77;100.00;96349.44;5110682;28;20176;-67
2021/10/18 06:53:33;;;;;;;1999.90;999.90;;;;;;;11.77;100.00;96354.66;5110669;28;20203;-68
2021/10/18 06:56:04;;;;;;;1999.90;999.90;;;;;;;11.84;100.00;96355.09;5110440;28;20199;-67
2021/10/18 06:58:32;;;;;;;1999.90;999.90;;;;;;;11.84;100.00;96365.50;5110498;28;20207;-68
2021/10/18 07:00:59;;;;;;;1999.90;999.90;;;;;;;11.94;100.00;96368.00;5110207;28;20195;-68
2021/10/18 07:03:27;;;;;;;1999.90;999.90;;;;;;;11.94;100.00;96370.59;5110334;28;20199;-68
2021/10/18 07:05:55;;;;;;;1999.90;999.90;;;;;;;12.15;100.00;96378.16;5110517;28;20199;-67
2021/10/18 07:08:22;;;;;;;1999.90;999.90;;;;;;;12.33;100.00;96377.38;5112200;28;20229;-67
2021/10/18 07:10:49;;;;;;;1999.90;999.90;;;;;;;12.35;100.00;96381.25;5114672;28;20585;-68
2021/10/18 07:13:17;;;;;;;1999.90;999.90;;;;;;;12.42;100.00;96384.28;5114463;28;20195;-67
2021/10/18 07:15:44;;;;;;;1999.90;999.90;;;;;;;12.60;100.00;96387.94;5114310;28;20199;-67
2021/10/18 07:18:11;;;;;;;1999.90;999.90;;;;;;;12.74;99.49;96382.78;5114300;28;20199;-67
2021/10/18 07:20:38;;;;;;;1999.90;999.90;;;;;;;12.68;100.00;96387.28;5114468;28;20199;-67
2021/10/18 07:23:09;;;;;;;1999.90;999.90;;;;;;;12.68;99.58;96389.13;5114268;28;20210;-67
2021/10/18 07:25:38;;;;;;;1999.90;999.90;;;;;;;12.69;98.21;96388.84;5114103;28;20187;-67
2021/10/18 07:28:07;;;;;;;1999.90;999.90;;;;;;;12.71;97.38;96386.72;5114229;28;20248;-67
2021/10/18 07:30:34;;;;;;;1999.90;999.90;;;;;;;12.91;97.71;96381.19;5113963;28;20195;-67
2021/10/18 07:33:02;;;;;;;1999.90;999.90;;;;;;;12.94;97.24;96383.25;5114084;27;20207;-67
2021/10/18 07:35:31;;;;;;;1999.90;999.90;;;;;;;13.08;97.03;96387.72;5114167;28;20201;-68
2021/10/18 07:37:59;;;;;;;1999.90;999.90;;;;;;;13.10;96.90;96391.56;5114271;28;20214;-68
2021/10/18 07:40:29;;;;;;;1999.90;999.90;;;;;;;13.21;96.40;96397.44;5113833;28;20325;-68
2021/10/18 07:42:56;;;;;;;1999.90;999.90;;;;;;;13.14;94.11;96395.22;5113893;28;20199;-67
2021/10/18 07:45:24;;;;;;;1999.90;999.90;;;;;;;13.22;93.71;96398.97;5113712;28;20202;-68
2021/10/18 07:47:51;;;;;;;1999.90;999.90;;;;;;;13.19;94.25;96395.13;5113651;28;20425;-67
2021/10/18 07:50:18;;;;;;;1999.90;999.90;;;;;;;13.29;94.97;96396.78;5113704;28;20248;-67
2021/10/18 07:52:46;;;;;;;1999.90;999.90;;;;;;;13.40;94.15;96392.91;5113908;28;20625;-67
2021/10/18 07:55:15;;;;;;;1999.90;999.90;;;;;;;13.54;93.92;96388.50;5113737;28;20199;-68
2021/10/18 07:57:46;;;;;;;1999.90;999.90;;;;;;;13.53;93.24;96394.00;5113303;28;20231;-67
2021/10/18 08:00:13;;;;;;;1999.90;999.90;;;;;;;13.45;91.83;96390.19;5113493;28;20265;-68
2021/10/18 08:02:41;;;;;;;1999.90;999.90;;;;;;;13.64;90.96;96396.13;5113401;28;20199;-66
2021/10/18 08:05:15;;;;;;;1999.90;999.90;;;;;;;13.85;89.95;96390.53;5113712;28;20211;-68
2021/10/18 08:07:42;;;;;;;1999.90;999.90;;;;;;;13.84;89.54;96388.97;5113268;28;20896;-68
2021/10/18 08:10:12;;;;;;;1999.90;999.90;;;;;;;13.89;90.52;96394.88;5113367;28;20242;-67
2021/10/18 08:12:40;;;;;;;1999.90;999.90;;;;;;;13.93;90.11;96389.84;5113118;28;20282;-66
2021/10/18 08:15:09;;;;;;;1999.90;999.90;;;;;;;14.07;89.84;96374.91;5113486;28;20198;-67
2021/10/18 08:17:36;;;;;;;1999.90;999.90;;;;;;;14.22;89.38;96372.75;5113473;27;20199;-67
2021/10/18 08:20:04;;;;;;;1999.90;999.90;;;;;;;14.22;85.59;96385.03;5112731;28;20265;-67
2021/10/18 08:22:31;;;;;;;1999.90;999.90;;;;;;;14.30;85.98;96375.72;5113263;28;20281;-67
2021/10/18 08:24:58;;;;;;;1999.90;999.90;;;;;;;14.38;85.10;96382.91;5113080;28;20294;-67
2021/10/18 08:27:25;;;;;;;1999.90;999.90;;;;;;;14.25;87.25;96379.22;5112992;28;20240;-67
2021/10/18 08:29:52;;;;;;;1999.90;999.90;;;;;;;14.19;89.13;96375.19;5113144;28;20206;-67
2021/10/18 08:32:20;;;;;;;1999.90;999.90;;;;;;;14.24;87.03;96380.31;5112814;28;20208;-67
2021/10/18 08:34:48;;;;;;;1999.90;999.90;;;;;;;14.50;86.65;96386.53;5113160;27;20647;-67
2021/10/18 08:37:15;;;;;;;1999.90;999.90;;;;;;;14.59;86.05;96384.75;5113054;28;21036;-67
2021/10/18 08:40:04;;;;;;;1999.90;999.90;;;;;;;14.61;86.08;96385.25;5112901;28;20230;-68
2021/10/18 08:42:41;;;;;;;1999.90;999.90;;;;;;;14.70;85.87;96381.91;5112867;28;21000;-68
2021/10/18 08:45:09;;;;;;;1999.90;999.90;;;;;;;14.69;85.48;96385.63;5112746;28;20222;-67
2021/10/18 08:47:38;;;;;;;1999.90;999.90;;;;;;;14.76;84.99;96393.81;5112690;28;20195;-67
2021/10/18 08:50:07;;;;;;;1999.90;999.90;;;;;;;14.68;85.08;96382.22;5112808;28;20567;-68
2021/10/18 08:52:35;;;;;;;1999.90;999.90;;;;;;;14.33;86.89;96375.91;5112422;28;20196;-68
2021/10/18 08:55:02;;;;;;;1999.90;999.90;;;;;;;14.37;87.16;96382.13;5112448;28;20205;-68
2021/10/18 08:57:29;;;;;;;1999.90;999.90;;;;;;;14.39;87.67;96380.00;5112245;28;20769;-69
2021/10/18 08:59:56;;;;;;;1999.90;999.90;;;;;;;14.48;86.99;96380.84;5112245;28;20755;-68
2021/10/18 09:02:38;;;;;;;1999.90;999.90;;;;;;;14.69;85.58;96385.63;5112222;28;20210;-68
2021/10/18 09:05:07;;;;;;;1999.90;999.90;;;;;;;14.55;86.06;96383.81;5112077;28;20630;-68
2021/10/18 09:07:37;;;;;;;1999.90;999.90;;;;;;;14.75;85.28;96385.19;5112298;28;20218;-68
2021/10/18 09:10:11;;;;;;;1999.90;999.90;;;;;;;14.80;84.80;96389.53;5112321;28;20191;-68
2021/10/18 09:12:40;;;;;;;1999.90;999.90;;;;;;;14.86;83.75;96390.97;5112474;28;20182;-68
2021/10/18 09:15:21;;;;;;;1999.90;999.90;;;;;;;14.90;83.42;96386.66;5112297;28;20282;-68
2021/10/18 09:17:54;;;;;;;1999.90;999.90;;;;;;;14.93;82.45;96389.47;5111991;28;20618;-68
2021/10/18 09:20:23;;;;;;;1999.90;999.90;;;;;;;15.01;83.19;96388.75;5111781;28;20733;-68
2021/10/18 09:22:51;;;;;;;1999.90;999.90;;;;;;;14.70;83.26;96392.38;5112182;28;20595;-68
2021/10/18 09:25:39;;;;;;;1999.90;999.90;;;;;;;14.81;84.81;96393.69;5111799;28;20196;-68
2021/10/18 09:28:14;;;;;;;1999.90;999.90;;;;;;;14.68;85.91;96391.91;5111861;28;20186;-69
2021/10/18 09:30:43;;;;;;;1999.90;999.90;;;;;;;14.48;85.71;96387.91;5111118;28;20206;-68
2021/10/18 09:33:24;;;;;;;1999.90;999.90;;;;;;;14.55;86.27;96388.25;5111795;28;20210;-68
2021/10/18 09:35:53;;;;;;;1999.90;999.90;;;;;;;14.62;85.93;96393.88;5111487;28;20190;-68
2021/10/18 09:38:21;;;;;;;1999.90;999.90;;;;;;;14.75;85.81;96390.41;5111651;28;20648;-69
2021/10/18 09:40:49;;;;;;;1999.90;999.90;;;;;;;14.74;83.90;96395.97;5111883;28;20230;-68
2021/10/18 09:43:27;;;;;;;1999.90;999.90;;;;;;;14.74;85.51;96391.50;5112118;28;20198;-68
2021/10/18 09:46:07;;;;;;;1999.90;999.90;;;;;;;15.02;84.02;96387.69;5111330;28;20209;-68
2021/10/18 10:51:19;;;;;;;1999.90;999.90;;;;;;;15.81;79.94;96353.69;5110470;28;20553;-68
2021/10/18 10:53:51;;;;;;;1999.90;999.90;;;;;;;15.77;82.62;96351.97;5110662;28;20217;-68
2021/10/18 10:56:29;;;;;;;1999.90;999.90;;;;;;;15.90;80.40;96353.69;5110480;28;20265;-68
2021/10/18 10:59:12;;;;;;;1999.90;999.90;;;;;;;16.01;80.72;96348.94;5110424;28;20724;-68
2021/10/18 11:01:46;;;;;;;1999.90;999.90;;;;;;;16.16;80.46;96351.13;5110290;28;20211;-68
2021/10/18 11:04:45;;;;;;;1999.90;999.90;;;;;;;16.11;80.87;96349.41;5110347;28;20190;-68
2021/10/18 11:07:15;;;;;;;1999.90;999.90;;;;;;;15.96;80.88;96344.63;5110194;28;20657;-69
2021/10/18 11:09:45;;;;;;;1999.90;999.90;;;;;;;15.94;80.41;96339.66;5110585;28;20274;-68
2021/10/18 11:12:22;;;;;;;1999.90;999.90;;;;;;;16.50;79.71;96343.25;5110182;28;20195;-67
2021/10/18 11:14:55;;;;;;;1999.90;999.90;;;;;;;16.72;77.59;96340.50;5108580;28;20187;-68
2021/10/18 11:17:23;;;;;;;1999.90;999.90;;;;;;;16.71;76.35;96340.81;5110228;28;20191;-66
2021/10/18 11:19:58;;;;;;;1999.90;999.90;;;;;;;16.70;77.81;96339.25;5110253;28;20698;-68
2021/10/18 11:22:30;;;;;;;1999.90;999.90;;;;;;;16.72;77.73;96342.34;5110283;28;20611;-66
2021/10/18 11:24:58;;;;;;;1999.90;999.90;;;;;;;16.52;77.76;96337.72;5110177;28;20280;-66
2021/10/18 11:27:32;;;;;;;1999.90;999.90;;;;;;;16.43;76.97;96334.31;5109949;28;20200;-66
2021/10/18 11:30:02;;;;;;;1999.90;999.90;;;;;;;16.35;77.89;96333.22;5110458;28;20267;-66
2021/10/18 11:32:31;;;;;;;1999.90;999.90;;;;;;;16.24;79.77;96334.59;5109999;28;20202;-66
2021/10/18 11:35:14;;;;;;;1999.90;999.90;;;;;;;16.14;79.30;96325.19;5110227;28;20282;-66
2021/10/18 11:38:03;;;;;;;1999.90;999.90;;;;;;;16.10;77.78;96326.88;5110011;28;20179;-67
2021/10/18 11:40:33;;;;;;;1999.90;999.90;;;;;;;16.04;79.12;96327.38;5104351;28;20230;-69
2021/10/18 11:43:04;;;;;;;1999.90;999.90;;;;;;;15.85;80.39;96325.78;5109983;28;20210;-66
2021/10/18 11:45:34;;;;;;;1999.90;999.90;;;;;;;15.79;80.27;96328.88;5110172;28;20175;-66
2021/10/18 11:48:06;;;;;;;1999.90;999.90;;;;;;;15.64;81.15;96324.81;5109782;28;20202;-68
2021/10/18 11:50:36;;;;;;;1999.90;999.90;;;;;;;15.74;80.65;96318.53;5109792;28;20187;-68
2021/10/18 11:53:11;;;;;;;1999.90;999.90;;;;;;;15.64;81.43;96321.44;5110113;28;20201;-67
2021/10/18 11:55:40;;;;;;;1999.90;999.90;;;;;;;15.46;81.45;96316.09;5113048;28;20277;-67
2021/10/18 11:58:10;;;;;;;1999.90;999.90;;;;;;;15.36;83.72;96318.22;5113519;27;20222;-67
2021/10/18 12:00:42;;;;;;;1999.90;999.90;;;;;;;15.65;82.62;96315.88;5113401;28;20214;-67